.
WxDataArchive / Data Records for 2010-03-31
2010-03-30 March 2010 2010-04-01

Data Records for Wednesday, 31 March 2010

Time	Temp	Chill	HIndex	Humid	Dewpt	 Wind 	HiWind	WindDir	Rain 	Barom 
-----	----	-----	------	-----	-----	------	------	-------	-----	----- 
00:00	39.8	39.8	39.8	86	36.0	0	0	---	0.00	29.937 
00:05	39.8	39.8	39.8	86	36.0	0	0	---	0.00	29.937 
00:10	39.8	39.8	39.8	86	36.0	0	0	---	0.00	29.937 
00:15	39.6	39.6	39.6	86	35.8	0	0	---	0.00	29.932 
00:20	39.5	39.5	39.5	86	35.7	0	0	---	0.00	29.932 
00:25	39.5	39.5	39.5	87	36.0	0	0	---	0.00	29.932 
00:30	39.5	39.5	39.5	87	36.0	0	0	---	0.00	29.930 
00:35	39.6	39.6	39.6	87	36.1	0	0	---	0.00	29.930 
00:40	39.9	39.9	39.9	86	36.1	0	0	---	0.00	29.930 
00:45	40.1	40.1	40.1	86	36.3	0	0	---	0.00	29.927 
00:50	40.1	40.1	40.1	85	36.0	0	0	---	0.00	29.927 
00:55	40.1	40.1	40.1	85	36.0	0	0	---	0.00	29.927 
01:00	40.1	40.1	40.1	85	36.0	0	0	---	0.00	29.930 
01:05	39.9	39.9	39.9	85	35.8	0	0	---	0.00	29.930 
01:10	39.9	39.9	39.9	84	35.5	0	0	---	0.00	29.930 
01:15	39.8	39.8	39.8	84	35.4	0	0	---	0.00	29.927 
01:20	39.6	39.6	39.6	84	35.2	0	0	---	0.00	29.927 
01:25	39.5	39.5	39.5	84	35.1	0	0	---	0.00	29.927 
01:30	39.3	39.3	39.3	84	34.9	0	0	---	0.00	29.919 
01:35	39.2	39.2	39.2	84	34.8	0	0	---	0.00	29.919 
01:40	38.9	38.9	38.9	84	34.5	0	0	---	0.00	29.919 
01:45	38.8	38.8	38.8	84	34.4	0	0	---	0.00	29.916 
01:50	38.5	38.5	38.5	84	34.1	0	0	---	0.00	29.916 
01:55	38.2	38.2	38.2	85	34.1	0	0	---	0.00	29.916 
02:00	38.2	38.2	38.2	86	34.4	0	0	---	0.00	29.917 
02:05	38.0	38.0	38.0	86	34.2	0	0	---	0.00	29.917 
02:10	37.9	37.9	37.9	86	34.1	0	0	---	0.00	29.917 
02:15	37.9	37.9	37.9	86	34.1	0	0	---	0.00	29.919 
02:20	37.8	37.8	37.8	86	34.0	0	0	---	0.00	29.919 
02:25	37.6	37.6	37.6	87	34.1	0	0	---	0.00	29.919 
02:30	37.3	37.3	37.3	87	33.8	0	0	---	0.00	29.931 
02:35	37.2	37.2	37.2	87	33.7	0	0	---	0.00	29.931 
02:40	37.0	37.0	37.0	87	33.5	0	0	---	0.00	29.931 
02:45	36.9	36.9	36.9	87	33.4	0	0	---	0.00	29.931 
02:50	36.8	36.8	36.8	87	33.3	0	0	---	0.00	29.931 
02:55	36.6	36.6	36.6	88	33.4	0	0	---	0.00	29.931 
03:00	36.6	36.6	36.6	88	33.4	0	0	---	0.00	29.928 
03:05	36.5	36.5	36.5	88	33.3	0	0	---	0.00	29.928 
03:10	36.3	36.3	36.3	88	33.1	0	0	---	0.00	29.928 
03:15	36.2	36.2	36.2	88	33.0	0	0	---	0.00	29.926 
03:20	36.2	36.2	36.2	89	33.3	0	0	---	0.00	29.926 
03:25	36.0	36.0	36.0	89	33.1	0	0	---	0.00	29.926 
03:30	36.2	36.2	36.2	89	33.3	0	0	---	0.00	29.932 
03:35	36.2	36.2	36.2	89	33.3	0	0	---	0.00	29.932 
03:40	36.0	36.0	36.0	89	33.1	0	0	---	0.00	29.932 
03:45	36.2	36.2	36.2	90	33.6	0	0	---	0.00	29.921 
03:50	36.0	36.0	36.0	89	33.1	0	0	---	0.00	29.921 
03:55	36.0	36.0	36.0	89	33.1	0	0	---	0.00	29.921 
04:00	35.9	35.9	35.9	89	33.0	0	0	---	0.00	29.926 
04:05	35.9	35.9	35.9	90	33.3	0	0	---	0.00	29.926 
04:10	35.9	35.9	35.9	90	33.3	0	0	---	0.00	29.926 
04:15	36.0	36.0	36.0	90	33.4	0	0	---	0.00	29.917 
04:20	36.2	36.2	36.2	90	33.6	0	0	---	0.00	29.917 
04:25	36.2	36.2	36.2	90	33.6	0	0	---	0.00	29.917 
04:30	36.0	36.0	36.0	90	33.4	0	0	---	0.00	29.923 
04:35	35.9	35.9	35.9	90	33.3	0	0	---	0.00	29.923 
04:40	35.9	35.9	35.9	90	33.3	0	0	---	0.00	29.923 
04:45	35.8	35.8	35.8	90	33.2	0	0	---	0.00	29.929 
04:50	35.8	35.8	35.8	90	33.2	0	0	---	0.00	29.929 
04:55	35.6	35.6	35.6	90	33.0	0	0	---	0.00	29.929 
05:00	35.5	35.5	35.5	90	32.9	0	0	---	0.00	29.923 
05:05	35.3	35.3	35.3	90	32.7	0	0	---	0.00	29.923 
05:10	35.3	35.3	35.3	90	32.7	0	0	---	0.00	29.923 
05:15	35.2	35.2	35.2	90	32.6	0	0	---	0.00	29.922 
05:20	35.0	35.0	35.0	90	32.4	0	0	---	0.00	29.922 
05:25	34.9	34.9	34.9	91	32.5	0	0	---	0.00	29.922 
05:30	34.7	34.7	34.7	91	32.3	0	0	---	0.00	29.925 
05:35	34.6	34.6	34.6	91	32.2	0	0	---	0.00	29.925 
05:40	34.6	34.6	34.6	91	32.2	0	0	---	0.00	29.925 
05:45	34.4	34.4	34.4	91	32.0	0	0	---	0.00	29.928 
05:50	34.3	34.3	34.3	91	32.0	0	0	---	0.00	29.928 
05:55	34.1	34.1	34.1	91	31.8	0	0	---	0.00	29.928 
06:00	34.0	34.0	34.0	91	31.7	0	0	---	0.00	29.933 
06:05	33.8	33.8	33.8	91	31.5	0	0	---	0.00	29.933 
06:10	33.8	33.8	33.8	92	31.7	0	0	---	0.00	29.933 
06:15	33.8	33.8	33.8	92	31.7	0	0	---	0.00	29.932 
06:20	33.8	33.8	33.8	92	31.7	0	0	---	0.00	29.932 
06:25	33.8	33.8	33.8	92	31.7	0	0	---	0.00	29.932 
06:30	33.8	33.8	33.8	92	31.7	0	0	---	0.00	29.930 
06:35	34.0	34.0	34.0	92	31.9	0	0	---	0.00	29.930 
06:40	33.8	33.8	33.8	92	31.7	0	0	---	0.00	29.930 
06:45	33.8	33.8	33.8	92	31.7	0	0	---	0.00	29.935 
06:50	33.8	33.8	33.8	92	31.7	0	0	---	0.00	29.935 
06:55	33.7	33.7	33.7	92	31.6	0	0	---	0.00	29.935 
07:00	33.7	33.7	33.7	92	31.6	0	0	---	0.00	29.938 
07:05	33.7	33.7	33.7	92	31.6	0	0	---	0.00	29.938 
07:10	33.8	33.8	33.8	92	31.7	0	0	---	0.00	29.938 
07:15	33.7	33.7	33.7	92	31.6	0	0	---	0.00	29.942 
07:20	33.7	33.7	33.7	92	31.6	0	0	---	0.00	29.942 
07:25	33.7	33.7	33.7	92	31.6	0	0	---	0.00	29.942 
07:30	33.7	33.7	33.7	92	31.6	0	0	---	0.00	29.951 
07:35	33.7	33.7	33.7	92	31.6	0	0	---	0.00	29.951 
07:40	33.7	33.7	33.7	92	31.6	0	0	---	0.00	29.951 
07:45	33.8	33.8	33.8	93	32.0	0	0	---	0.00	29.954 
07:50	34.0	34.0	34.0	93	32.2	0	0	---	0.00	29.954 
07:55	34.1	34.1	34.1	93	32.3	0	0	---	0.00	29.954 
08:00	34.4	34.4	34.4	93	32.6	0	0	---	0.00	29.954 
08:05	34.6	34.6	34.6	93	32.8	0	0	---	0.00	29.954 
08:10	34.9	34.9	34.9	93	33.1	0	0	---	0.00	29.954 
08:15	35.5	35.5	35.5	94	33.9	0	0	---	0.00	29.958 
08:20	36.3	36.3	36.3	94	34.7	0	0	---	0.00	29.958 
08:25	37.5	37.5	37.5	94	35.9	0	0	---	0.00	29.958 
08:30	38.8	38.8	38.8	94	37.2	0	1	68	0.00	29.952 
08:35	40.1	40.1	40.1	91	37.7	0	1	90	0.00	29.952 
08:40	41.6	41.6	41.6	87	38.0	0	1	90	0.00	29.952 
08:45	42.8	42.8	42.8	85	38.6	0	1	90	0.00	29.949 
08:50	44.1	44.1	44.1	80	38.3	0	1	90	0.00	29.949 
08:55	44.9	44.9	44.9	77	38.1	0	3	90	0.00	29.949 
09:00	45.8	45.8	45.8	74	38.0	0	3	112	0.00	29.943 
09:05	46.2	46.2	46.2	72	37.7	0	1	112	0.00	29.943 
09:10	46.5	46.5	46.5	72	38.0	0	1	112	0.00	29.943 
09:15	47.3	47.3	47.3	71	38.4	0	2	112	0.00	29.949 
09:20	48.3	48.3	48.3	69	38.6	0	2	112	0.00	29.949 
09:25	49.4	49.4	49.4	68	39.3	0	2	112	0.00	29.949 
09:30	50.2	50.2	50.2	65	38.9	1	3	112	0.00	29.941 
09:35	51.1	51.1	51.1	62	38.5	1	4	112	0.00	29.941 
09:40	52.0	52.0	52.0	62	39.4	1	3	270	0.00	29.941 
09:45	52.8	52.8	52.8	61	39.7	1	3	135	0.00	29.945 
09:50	53.3	53.3	53.3	58	38.9	2	4	90	0.00	29.945 
09:55	53.6	53.6	53.6	59	39.6	1	3	315	0.00	29.945 
10:00	54.2	54.2	54.2	59	40.2	0	1	315	0.00	29.950 
10:05	54.8	54.8	54.8	58	40.3	1	5	90	0.00	29.950 
10:10	55.3	55.3	55.3	55	39.4	1	6	90	0.00	29.950 
10:15	55.3	55.3	55.3	56	39.9	1	3	270	0.00	29.944 
10:20	55.6	55.6	55.6	55	39.7	1	5	112	0.00	29.944 
10:25	56.0	56.0	56.0	54	39.6	2	5	90	0.00	29.944 
10:30	56.5	56.5	56.5	55	40.5	1	5	248	0.00	29.940 
10:35	57.0	57.0	57.0	53	40.0	2	5	90	0.00	29.940 
10:40	57.2	57.2	57.2	54	40.7	2	5	90	0.00	29.940 
10:45	57.5	57.5	57.5	55	41.5	1	4	180	0.00	29.939 
10:50	58.4	58.4	58.4	51	40.3	2	11	90	0.00	29.939 
10:55	58.4	58.4	58.4	52	40.8	2	6	248	0.00	29.939 
11:00	58.3	58.3	58.3	53	41.2	1	6	248	0.00	29.955 
11:05	58.4	58.4	58.4	54	41.8	1	2	68	0.00	29.955 
11:10	58.9	58.9	58.9	53	41.8	2	5	90	0.00	29.955 
11:15	59.2	59.2	59.2	53	42.1	2	5	90	0.00	29.954 
11:20	59.6	59.6	59.6	53	42.4	2	5	68	0.00	29.954 
11:25	60.2	60.2	60.2	51	42.0	2	6	270	0.00	29.954 
11:30	60.9	60.9	60.9	51	42.6	2	6	112	0.00	29.946 
11:35	61.3	61.3	61.3	50	42.5	2	5	90	0.00	29.946 
11:40	61.8	61.8	61.8	51	43.5	1	4	225	0.00	29.946 
11:45	62.7	62.7	62.7	49	43.3	2	5	90	0.00	29.944 
11:50	63.2	63.2	63.2	49	43.7	2	6	248	0.00	29.944 
11:55	63.7	63.7	63.7	49	44.2	2	6	68	0.00	29.944 
12:00	63.7	63.7	63.7	47	43.1	3	9	248	0.00	29.944 
12:05	64.2	64.2	64.2	48	44.1	1	5	338	0.00	29.944 
12:10	64.7	64.7	64.7	48	44.6	2	5	68	0.00	29.944 
12:15	65.0	65.0	65.0	46	43.7	3	6	112	0.00	29.940 
12:20	65.0	65.0	65.0	46	43.7	2	6	112	0.00	29.940 
12:25	65.5	65.5	65.5	46	44.2	3	9	90	0.00	29.940 
12:30	65.8	65.8	65.8	46	44.4	2	9	292	0.00	29.930 
12:35	66.0	66.0	66.0	44	43.5	3	9	90	0.00	29.930 
12:40	66.1	66.1	66.1	46	44.7	2	6	248	0.00	29.930 
12:45	66.0	66.0	66.0	43	42.9	4	10	248	0.00	29.923 
12:50	66.6	66.6	66.6	46	45.2	2	9	270	0.00	29.923 
12:55	67.3	67.3	67.3	44	44.6	2	7	112	0.00	29.923 
13:00	67.3	67.3	67.3	43	44.0	3	7	248	0.00	29.922 
13:05	67.4	67.4	67.4	44	44.7	2	7	270	0.00	29.922 
13:10	67.6	67.6	67.6	44	44.9	3	9	270	0.00	29.922 
13:15	67.8	67.8	67.8	42	43.9	3	6	248	0.00	29.922 
13:20	68.1	68.1	68.1	41	43.5	3	6	90	0.00	29.922 
13:25	68.8	68.8	68.8	42	44.8	3	7	112	0.00	29.922 
13:30	69.1	69.1	69.1	42	45.0	2	6	90	0.00	29.914 
13:35	69.4	69.4	69.4	41	44.7	2	4	292	0.00	29.914 
13:40	69.8	69.8	69.8	42	45.7	2	5	112	0.00	29.914 
13:45	70.1	70.1	70.1	40	44.6	3	6	90	0.00	29.906 
13:50	70.3	70.3	70.3	42	46.1	2	7	248	0.00	29.906 
13:55	70.6	70.6	70.6	43	47.0	2	5	248	0.00	29.906 
14:00	70.8	70.8	70.8	40	45.3	3	11	270	0.00	29.902 
14:05	70.9	70.9	70.9	39	44.7	3	9	248	0.00	29.902 
14:10	70.9	70.9	70.9	41	46.0	2	6	248	0.00	29.902 
14:15	71.1	71.1	71.1	43	47.5	2	6	112	0.00	29.900 
14:20	71.5	71.5	71.5	39	45.2	2	6	90	0.00	29.900 
14:25	71.5	71.5	71.5	38	44.5	2	5	90	0.00	29.900 
14:30	71.6	71.6	71.6	38	44.6	2	5	90	0.00	29.888 
14:35	72.0	72.0	72.0	39	45.7	2	5	112	0.00	29.888 
14:40	72.0	72.0	72.0	38	45.0	3	10	90	0.00	29.888 
14:45	71.8	71.8	71.8	37	44.1	4	9	90	0.00	29.875 
14:50	71.8	71.8	71.8	37	44.1	3	8	90	0.00	29.875 
14:55	72.0	72.0	72.0	41	47.0	2	7	68	0.00	29.875 
15:00	72.1	72.1	72.1	39	45.8	3	6	248	0.00	29.873 
15:05	72.5	72.5	72.5	39	46.1	2	5	68	0.00	29.873 
15:10	72.7	72.7	72.7	39	46.3	2	9	90	0.00	29.873 
15:15	72.7	72.7	72.7	38	45.6	3	6	90	0.00	29.873 
15:20	72.7	72.7	72.7	38	45.6	4	10	90	0.00	29.873 
15:25	72.7	72.7	72.7	36	44.2	4	10	270	0.00	29.873 
15:30	73.2	73.2	73.2	39	46.7	1	5	112	0.00	29.868 
15:35	73.3	73.3	73.3	37	45.4	3	6	90	0.00	29.868 
15:40	73.0	73.0	73.0	38	45.9	3	10	90	0.00	29.868 
15:45	73.2	73.2	73.2	37	45.4	2	7	270	0.00	29.861 
15:50	73.2	73.2	73.2	36	44.6	4	10	90	0.00	29.861 
15:55	73.0	73.0	73.0	39	46.6	4	13	90	0.00	29.861 
16:00	73.0	73.0	73.0	35	43.7	4	10	90	0.00	29.852 
16:05	72.7	72.7	72.7	35	43.5	6	17	90	0.00	29.852 
16:10	72.7	72.7	72.7	36	44.2	5	11	90	0.00	29.852 
16:15	72.8	72.8	72.8	38	45.7	4	12	45	0.00	29.848 
16:20	73.3	73.3	73.3	38	46.1	2	6	90	0.00	29.848 
16:25	73.5	73.5	73.5	36	44.9	3	7	112	0.00	29.848 
16:30	73.5	73.5	73.5	35	44.2	4	12	90	0.00	29.842 
16:35	73.2	73.2	73.2	36	44.6	5	13	90	0.00	29.842 
16:40	73.3	73.3	73.3	35	44.0	3	8	270	0.00	29.842 
16:45	73.2	73.2	73.2	37	45.4	4	10	315	0.00	29.842 
16:50	73.0	73.0	73.0	37	45.2	4	11	90	0.00	29.842 
16:55	73.0	73.0	73.0	35	43.7	5	13	90	0.00	29.842 
17:00	73.2	73.2	73.2	37	45.4	4	9	90	0.00	29.840 
17:05	73.3	73.3	73.3	36	44.7	4	11	90	0.00	29.840 
17:10	73.2	73.2	73.2	37	45.4	4	12	90	0.00	29.840 
17:15	73.3	73.3	73.3	35	44.0	3	7	90	0.00	29.832 
17:20	73.5	73.5	73.5	35	44.2	5	11	90	0.00	29.832 
17:25	73.3	73.3	73.3	36	44.7	4	15	90	0.00	29.832 
17:30	73.2	73.2	73.2	35	43.9	4	10	292	0.00	29.828 
17:35	73.2	73.2	73.2	36	44.6	4	12	248	0.00	29.828 
17:40	73.2	73.2	73.2	37	45.4	3	11	45	0.00	29.828 
17:45	73.2	73.2	73.2	36	44.6	3	7	90	0.00	29.827 
17:50	73.2	73.2	73.2	36	44.6	4	10	90	0.00	29.827 
17:55	73.2	73.2	73.2	37	45.4	2	7	270	0.00	29.827 
18:00	73.3	73.3	73.3	36	44.7	4	10	112	0.00	29.827 
18:05	73.3	73.3	73.3	36	44.7	2	7	90	0.00	29.827 
18:10	73.2	73.2	73.2	36	44.6	2	7	90	0.00	29.827 
18:15	73.0	73.0	73.0	36	44.5	4	13	90	0.00	29.827 
18:20	72.7	72.7	72.7	35	43.5	4	9	90	0.00	29.827 
18:25	72.5	72.5	72.5	35	43.3	3	9	90	0.00	29.827 
18:30	72.3	72.3	72.3	36	43.8	3	10	90	0.00	29.826 
18:35	72.3	72.3	72.3	36	43.8	3	9	270	0.00	29.826 
18:40	72.1	72.1	72.1	36	43.7	3	8	90	0.00	29.826 
18:45	72.0	72.0	72.0	37	44.3	2	6	0	0.00	29.827 
18:50	71.8	71.8	71.8	37	44.1	3	6	270	0.00	29.827 
18:55	71.6	71.6	71.6	38	44.6	2	7	68	0.00	29.827 
19:00	71.3	71.3	71.3	38	44.4	2	6	90	0.00	29.829 
19:05	71.3	71.3	71.3	38	44.4	3	8	248	0.00	29.829 
19:10	71.1	71.1	71.1	38	44.2	2	6	90	0.00	29.829 
19:15	71.1	71.1	71.1	38	44.2	3	6	90	0.00	29.830 
19:20	70.9	70.9	70.9	37	43.3	2	7	135	0.00	29.830 
19:25	70.8	70.8	70.8	38	43.9	3	7	90	0.00	29.830 
19:30	70.4	70.4	70.4	38	43.6	2	6	90	0.00	29.833 
19:35	70.3	70.3	70.3	38	43.5	3	8	90	0.00	29.833 
19:40	69.9	69.9	69.9	39	43.8	1	4	45	0.00	29.833 
19:45	69.6	69.6	69.6	40	44.2	1	4	90	0.00	29.835 
19:50	69.3	69.3	69.3	40	43.9	2	6	90	0.00	29.835 
19:55	69.1	69.1	69.1	40	43.8	1	5	270	0.00	29.835 
20:00	68.9	68.9	68.9	40	43.6	2	8	90	0.00	29.836 
20:05	68.8	68.8	68.8	40	43.5	2	6	90	0.00	29.836 
20:10	68.6	68.6	68.6	41	44.0	1	7	90	0.00	29.836 
20:15	68.4	68.4	68.4	41	43.8	1	6	112	0.00	29.827 
20:20	68.1	68.1	68.1	41	43.5	1	5	45	0.00	29.827 
20:25	67.8	67.8	67.8	42	43.9	1	5	45	0.00	29.827 
20:30	67.6	67.6	67.6	42	43.7	1	4	112	0.00	29.829 
20:35	67.4	67.4	67.4	42	43.5	1	4	68	0.00	29.829 
20:40	67.1	67.1	67.1	43	43.8	1	4	68	0.00	29.829 
20:45	66.9	66.9	66.9	43	43.7	1	4	90	0.00	29.832 
20:50	66.6	66.6	66.6	44	44.0	0	3	90	0.00	29.832 
20:55	66.4	66.4	66.4	44	43.8	1	4	45	0.00	29.832 
21:00	66.1	66.1	66.1	45	44.1	0	1	45	0.00	29.839 
21:05	65.6	65.6	65.6	45	43.7	0	0	---	0.00	29.839 
21:10	65.3	65.3	65.3	46	44.0	0	1	45	0.00	29.839 
21:15	64.7	64.7	64.7	48	44.6	0	1	45	0.00	29.843 
21:20	63.7	63.7	63.7	50	44.7	0	0	---	0.00	29.843 
21:25	62.9	62.9	62.9	51	44.5	0	1	45	0.00	29.843 
21:30	62.4	62.4	62.4	52	44.5	0	1	68	0.00	29.851 
21:35	62.3	62.3	62.3	52	44.4	0	1	68	0.00	29.851 
21:40	62.3	62.3	62.3	52	44.4	0	3	68	0.00	29.851 
21:45	62.4	62.4	62.4	51	44.0	0	3	68	0.00	29.851 
21:50	62.6	62.6	62.6	51	44.2	0	1	68	0.00	29.851 
21:55	62.3	62.3	62.3	52	44.4	0	1	68	0.00	29.851 
22:00	61.8	61.8	61.8	53	44.5	0	0	---	0.00	29.850 
22:05	61.3	61.3	61.3	54	44.5	0	1	68	0.00	29.850 
22:10	60.9	60.9	60.9	54	44.1	0	0	---	0.00	29.850 
22:15	60.4	60.4	60.4	55	44.2	0	0	---	0.00	29.850 
22:20	59.8	59.8	59.8	56	44.1	0	0	---	0.00	29.850 
22:25	59.2	59.2	59.2	58	44.4	0	1	68	0.00	29.850 
22:30	58.7	58.7	58.7	58	44.0	0	1	68	0.00	29.859 
22:35	58.6	58.6	58.6	58	43.9	0	0	---	0.00	29.859 
22:40	58.4	58.4	58.4	59	44.1	0	0	---	0.00	29.859 
22:45	58.1	58.1	58.1	60	44.3	0	1	68	0.00	29.866 
22:50	58.0	58.0	58.0	60	44.2	0	1	68	0.00	29.866 
22:55	58.0	58.0	58.0	60	44.2	0	1	68	0.00	29.866 
23:00	57.8	57.8	57.8	61	44.4	0	0	---	0.00	29.867 
23:05	57.5	57.5	57.5	61	44.2	0	1	68	0.00	29.867 
23:10	57.5	57.5	57.5	62	44.6	0	0	---	0.00	29.867 
23:15	57.3	57.3	57.3	62	44.4	0	2	68	0.00	29.867 
23:20	57.3	57.3	57.3	62	44.4	0	0	---	0.00	29.867 
23:25	57.2	57.2	57.2	62	44.3	0	0	---	0.00	29.867 
23:30	57.0	57.0	57.0	63	44.5	0	0	---	0.00	29.870 
23:35	57.0	57.0	57.0	63	44.5	0	0	---	0.00	29.870 
23:40	56.7	56.7	56.7	64	44.7	0	0	---	0.00	29.870 
23:45	56.6	56.6	56.6	64	44.6	0	0	---	0.00	29.873 
23:50	56.5	56.5	56.5	64	44.5	0	0	---	0.00	29.873 
23:55	56.2	56.2	56.2	65	44.6	0	0	---	0.00	29.873 

CoCoRaHS
IN-AL-39
A2 Web Hosting
Creative Commons License
GoDaddy
search engine by freefind advanced

loaded 2018-11-15 04:16:04 • last modified 2010-11-18 10:43:29
Privacy PolicyDisclaimer
• wx.awcolley.com is powered by PmWiki v.2002016 •
• all content (unless otherwise noted) © 2018 A W Colley